sensor_id;sensor_type;location;lat;lon;timestamp;P1;durP1;ratioP1;P2;durP2;ratioP2
67503;SDS011;54351;49.108;1.502;2023-02-04T00:01:25;330.05;;;306.48;;
67503;SDS011;54351;49.108;1.502;2023-02-04T00:03:51;368.73;;;341.58;;
67503;SDS011;54351;49.108;1.502;2023-02-04T00:06:18;375.85;;;347.42;;
67503;SDS011;54351;49.108;1.502;2023-02-04T00:08:44;329.67;;;304.85;;
67503;SDS011;54351;49.108;1.502;2023-02-04T00:11:10;341.23;;;314.73;;
67503;SDS011;54351;49.108;1.502;2023-02-04T00:13:36;348.80;;;322.40;;
67503;SDS011;54351;49.108;1.502;2023-02-04T00:16:02;377.55;;;349.30;;
67503;SDS011;54351;49.108;1.502;2023-02-04T00:18:28;358.15;;;331.35;;
67503;SDS011;54351;49.108;1.502;2023-02-04T00:20:54;353.42;;;326.48;;
67503;SDS011;54351;49.108;1.502;2023-02-04T00:23:20;350.95;;;324.35;;
67503;SDS011;54351;49.108;1.502;2023-02-04T00:25:46;341.98;;;316.23;;
67503;SDS011;54351;49.108;1.502;2023-02-04T00:28:13;348.63;;;321.73;;
67503;SDS011;54351;49.108;1.502;2023-02-04T00:30:39;340.63;;;313.98;;
67503;SDS011;54351;49.108;1.502;2023-02-04T00:33:05;345.13;;;318.45;;
67503;SDS011;54351;49.108;1.502;2023-02-04T00:35:31;362.83;;;334.77;;
67503;SDS011;54351;49.108;1.502;2023-02-04T00:37:57;342.00;;;315.48;;
67503;SDS011;54351;49.108;1.502;2023-02-04T00:40:23;328.00;;;302.23;;
67503;SDS011;54351;49.108;1.502;2023-02-04T00:42:49;357.73;;;328.15;;
67503;SDS011;54351;49.108;1.502;2023-02-04T00:45:15;346.35;;;319.00;;
67503;SDS011;54351;49.108;1.502;2023-02-04T00:47:41;357.92;;;329.77;;
67503;SDS011;54351;49.108;1.502;2023-02-04T00:50:07;349.98;;;321.77;;
67503;SDS011;54351;49.108;1.502;2023-02-04T00:52:33;301.35;;;276.58;;
67503;SDS011;54351;49.108;1.502;2023-02-04T00:54:59;333.48;;;306.00;;
67503;SDS011;54351;49.108;1.502;2023-02-04T00:57:25;379.70;;;349.35;;
67503;SDS011;54351;49.108;1.502;2023-02-04T00:59:52;386.90;;;356.08;;
67503;SDS011;54351;49.108;1.502;2023-02-04T01:02:18;362.05;;;332.92;;
67503;SDS011;54351;49.108;1.502;2023-02-04T01:04:44;332.55;;;305.58;;
67503;SDS011;54351;49.108;1.502;2023-02-04T01:07:10;325.25;;;298.30;;
67503;SDS011;54351;49.108;1.502;2023-02-04T01:09:36;328.95;;;302.85;;
67503;SDS011;54351;49.108;1.502;2023-02-04T01:12:02;299.73;;;275.77;;
67503;SDS011;54351;49.108;1.502;2023-02-04T01:14:28;294.52;;;270.52;;
67503;SDS011;54351;49.108;1.502;2023-02-04T01:16:54;313.15;;;288.08;;
67503;SDS011;54351;49.108;1.502;2023-02-04T01:19:20;312.83;;;287.50;;
67503;SDS011;54351;49.108;1.502;2023-02-04T01:21:46;302.90;;;278.42;;
67503;SDS011;54351;49.108;1.502;2023-02-04T01:24:12;275.65;;;252.57;;
67503;SDS011;54351;49.108;1.502;2023-02-04T01:26:39;310.05;;;283.63;;
67503;SDS011;54351;49.108;1.502;2023-02-04T01:29:05;322.17;;;296.02;;
67503;SDS011;54351;49.108;1.502;2023-02-04T01:31:31;343.52;;;314.38;;
67503;SDS011;54351;49.108;1.502;2023-02-04T01:33:58;389.33;;;357.45;;
67503;SDS011;54351;49.108;1.502;2023-02-04T01:36:25;364.67;;;334.13;;
67503;SDS011;54351;49.108;1.502;2023-02-04T01:38:51;327.10;;;299.65;;
67503;SDS011;54351;49.108;1.502;2023-02-04T01:41:17;251.43;;;229.57;;
67503;SDS011;54351;49.108;1.502;2023-02-04T01:43:46;211.60;;;194.00;;
67503;SDS011;54351;49.108;1.502;2023-02-04T01:46:13;342.13;;;313.48;;
67503;SDS011;54351;49.108;1.502;2023-02-04T01:48:39;322.95;;;295.77;;
67503;SDS011;54351;49.108;1.502;2023-02-04T01:51:10;336.23;;;307.75;;
67503;SDS011;54351;49.108;1.502;2023-02-04T01:53:36;288.83;;;263.95;;
67503;SDS011;54351;49.108;1.502;2023-02-04T01:56:17;372.42;;;341.67;;
67503;SDS011;54351;49.108;1.502;2023-02-04T01:58:44;377.98;;;345.58;;
67503;SDS011;54351;49.108;1.502;2023-02-04T02:01:12;371.20;;;340.17;;
67503;SDS011;54351;49.108;1.502;2023-02-04T02:03:38;376.70;;;345.20;;
67503;SDS011;54351;49.108;1.502;2023-02-04T02:06:04;378.40;;;347.15;;
67503;SDS011;54351;49.108;1.502;2023-02-04T02:08:33;402.83;;;369.75;;
67503;SDS011;54351;49.108;1.502;2023-02-04T02:10:59;363.13;;;332.95;;
67503;SDS011;54351;49.108;1.502;2023-02-04T02:13:25;360.17;;;329.35;;
67503;SDS011;54351;49.108;1.502;2023-02-04T02:15:52;324.05;;;296.33;;
67503;SDS011;54351;49.108;1.502;2023-02-04T02:18:18;365.42;;;334.63;;
67503;SDS011;54351;49.108;1.502;2023-02-04T02:20:44;315.27;;;288.00;;
67503;SDS011;54351;49.108;1.502;2023-02-04T02:23:16;303.30;;;277.08;;
67503;SDS011;54351;49.108;1.502;2023-02-04T02:25:44;316.40;;;289.33;;
67503;SDS011;54351;49.108;1.502;2023-02-04T02:28:11;351.48;;;321.58;;
67503;SDS011;54351;49.108;1.502;2023-02-04T02:30:38;330.52;;;302.23;;
67503;SDS011;54351;49.108;1.502;2023-02-04T02:33:04;308.88;;;281.65;;
67503;SDS011;54351;49.108;1.502;2023-02-04T02:35:31;356.58;;;326.42;;
67503;SDS011;54351;49.108;1.502;2023-02-04T02:37:57;382.27;;;350.50;;
67503;SDS011;54351;49.108;1.502;2023-02-04T02:40:23;355.48;;;325.15;;
67503;SDS011;54351;49.108;1.502;2023-02-04T02:42:50;295.55;;;269.30;;
67503;SDS011;54351;49.108;1.502;2023-02-04T02:45:21;310.05;;;283.30;;
67503;SDS011;54351;49.108;1.502;2023-02-04T02:47:48;293.83;;;268.10;;
67503;SDS011;54351;49.108;1.502;2023-02-04T02:50:15;320.95;;;293.75;;
67503;SDS011;54351;49.108;1.502;2023-02-04T02:52:41;354.65;;;324.42;;
67503;SDS011;54351;49.108;1.502;2023-02-04T02:55:14;370.08;;;338.23;;
67503;SDS011;54351;49.108;1.502;2023-02-04T02:57:41;323.92;;;295.60;;
67503;SDS011;54351;49.108;1.502;2023-02-04T03:00:12;380.27;;;347.98;;
67503;SDS011;54351;49.108;1.502;2023-02-04T03:02:38;339.08;;;309.85;;
67503;SDS011;54351;49.108;1.502;2023-02-04T03:05:04;324.60;;;296.00;;
67503;SDS011;54351;49.108;1.502;2023-02-04T03:07:31;297.15;;;270.73;;
67503;SDS011;54351;49.108;1.502;2023-02-04T03:09:57;340.02;;;310.90;;
67503;SDS011;54351;49.108;1.502;2023-02-04T03:12:23;448.45;;;409.95;;
67503;SDS011;54351;49.108;1.502;2023-02-04T03:14:50;361.27;;;329.77;;
67503;SDS011;54351;49.108;1.502;2023-02-04T03:17:16;324.42;;;295.83;;
67503;SDS011;54351;49.108;1.502;2023-02-04T03:19:42;280.92;;;257.08;;
67503;SDS011;54351;49.108;1.502;2023-02-04T03:22:08;325.83;;;297.50;;
67503;SDS011;54351;49.108;1.502;2023-02-04T03:24:34;274.73;;;250.02;;
67503;SDS011;54351;49.108;1.502;2023-02-04T03:27:01;305.23;;;278.13;;
67503;SDS011;54351;49.108;1.502;2023-02-04T03:29:27;320.48;;;291.67;;
67503;SDS011;54351;49.108;1.502;2023-02-04T03:31:53;316.10;;;287.95;;
67503;SDS011;54351;49.108;1.502;2023-02-04T03:34:20;256.83;;;232.63;;
67503;SDS011;54351;49.108;1.502;2023-02-04T03:36:47;312.38;;;285.27;;
67503;SDS011;54351;49.108;1.502;2023-02-04T03:39:13;258.33;;;235.15;;
67503;SDS011;54351;49.108;1.502;2023-02-04T03:41:39;293.02;;;266.73;;
67503;SDS011;54351;49.108;1.502;2023-02-04T03:44:05;169.88;;;154.23;;
67503;SDS011;54351;49.108;1.502;2023-02-04T03:46:31;206.15;;;186.90;;
67503;SDS011;54351;49.108;1.502;2023-02-04T03:48:57;244.27;;;221.27;;
67503;SDS011;54351;49.108;1.502;2023-02-04T03:51:23;291.27;;;265.77;;
67503;SDS011;54351;49.108;1.502;2023-02-04T03:53:49;359.88;;;329.27;;
67503;SDS011;54351;49.108;1.502;2023-02-04T03:56:15;263.70;;;240.45;;
67503;SDS011;54351;49.108;1.502;2023-02-04T03:58:41;267.80;;;243.43;;
67503;SDS011;54351;49.108;1.502;2023-02-04T04:01:08;285.67;;;260.10;;
67503;SDS011;54351;49.108;1.502;2023-02-04T04:03:34;294.83;;;269.30;;
67503;SDS011;54351;49.108;1.502;2023-02-04T04:06:00;233.32;;;211.85;;
67503;SDS011;54351;49.108;1.502;2023-02-04T04:08:29;234.88;;;213.02;;
67503;SDS011;54351;49.108;1.502;2023-02-04T04:10:55;206.40;;;187.02;;
67503;SDS011;54351;49.108;1.502;2023-02-04T04:13:21;222.85;;;202.55;;
67503;SDS011;54351;49.108;1.502;2023-02-04T04:15:47;224.05;;;203.20;;
67503;SDS011;54351;49.108;1.502;2023-02-04T04:18:13;197.88;;;179.80;;
67503;SDS011;54351;49.108;1.502;2023-02-04T04:20:39;256.38;;;233.85;;
67503;SDS011;54351;49.108;1.502;2023-02-04T04:23:05;198.68;;;180.60;;
67503;SDS011;54351;49.108;1.502;2023-02-04T04:25:31;231.40;;;210.88;;
67503;SDS011;54351;49.108;1.502;2023-02-04T04:27:57;198.45;;;179.20;;
67503;SDS011;54351;49.108;1.502;2023-02-04T04:30:23;278.92;;;253.55;;
67503;SDS011;54351;49.108;1.502;2023-02-04T04:32:49;376.63;;;343.75;;
67503;SDS011;54351;49.108;1.502;2023-02-04T04:35:15;387.83;;;353.48;;
67503;SDS011;54351;49.108;1.502;2023-02-04T04:37:41;303.77;;;277.20;;
67503;SDS011;54351;49.108;1.502;2023-02-04T04:40:09;259.33;;;236.52;;
67503;SDS011;54351;49.108;1.502;2023-02-04T04:42:36;306.75;;;279.35;;
67503;SDS011;54351;49.108;1.502;2023-02-04T04:45:04;288.38;;;262.73;;
67503;SDS011;54351;49.108;1.502;2023-02-04T04:47:30;327.95;;;298.67;;
67503;SDS011;54351;49.108;1.502;2023-02-04T04:49:56;284.55;;;259.02;;
67503;SDS011;54351;49.108;1.502;2023-02-04T04:52:22;297.70;;;270.98;;
67503;SDS011;54351;49.108;1.502;2023-02-04T04:54:48;293.30;;;267.23;;
67503;SDS011;54351;49.108;1.502;2023-02-04T04:57:14;288.73;;;263.40;;
67503;SDS011;54351;49.108;1.502;2023-02-04T04:59:40;313.48;;;285.88;;
67503;SDS011;54351;49.108;1.502;2023-02-04T05:02:06;291.20;;;265.10;;
67503;SDS011;54351;49.108;1.502;2023-02-04T05:04:32;329.90;;;299.50;;
67503;SDS011;54351;49.108;1.502;2023-02-04T05:06:58;356.35;;;324.98;;
67503;SDS011;54351;49.108;1.502;2023-02-04T05:09:25;348.90;;;317.42;;
67503;SDS011;54351;49.108;1.502;2023-02-04T05:11:51;341.60;;;311.55;;
67503;SDS011;54351;49.108;1.502;2023-02-04T05:14:17;376.00;;;342.33;;
67503;SDS011;54351;49.108;1.502;2023-02-04T05:16:43;372.08;;;338.92;;
67503;SDS011;54351;49.108;1.502;2023-02-04T05:19:09;303.95;;;276.02;;
67503;SDS011;54351;49.108;1.502;2023-02-04T05:21:35;262.23;;;238.27;;
67503;SDS011;54351;49.108;1.502;2023-02-04T05:24:01;246.82;;;224.05;;
67503;SDS011;54351;49.108;1.502;2023-02-04T05:26:27;292.83;;;266.65;;
67503;SDS011;54351;49.108;1.502;2023-02-04T05:28:53;277.35;;;252.55;;
67503;SDS011;54351;49.108;1.502;2023-02-04T05:31:19;278.60;;;253.40;;
67503;SDS011;54351;49.108;1.502;2023-02-04T05:33:46;290.27;;;263.80;;
67503;SDS011;54351;49.108;1.502;2023-02-04T05:36:12;278.88;;;253.27;;
67503;SDS011;54351;49.108;1.502;2023-02-04T05:38:38;272.95;;;248.07;;
67503;SDS011;54351;49.108;1.502;2023-02-04T05:41:04;335.20;;;304.58;;
67503;SDS011;54351;49.108;1.502;2023-02-04T05:43:30;295.85;;;268.58;;
67503;SDS011;54351;49.108;1.502;2023-02-04T05:45:56;292.35;;;265.55;;
67503;SDS011;54351;49.108;1.502;2023-02-04T05:48:22;313.48;;;286.40;;
67503;SDS011;54351;49.108;1.502;2023-02-04T05:50:48;335.60;;;306.52;;
67503;SDS011;54351;49.108;1.502;2023-02-04T05:53:14;315.60;;;287.95;;
67503;SDS011;54351;49.108;1.502;2023-02-04T05:55:40;284.42;;;258.23;;
67503;SDS011;54351;49.108;1.502;2023-02-04T05:58:06;333.90;;;304.15;;
67503;SDS011;54351;49.108;1.502;2023-02-04T06:00:32;330.52;;;301.25;;
67503;SDS011;54351;49.108;1.502;2023-02-04T06:02:58;341.92;;;311.95;;
67503;SDS011;54351;49.108;1.502;2023-02-04T06:05:24;337.23;;;306.38;;
67503;SDS011;54351;49.108;1.502;2023-02-04T06:07:50;282.08;;;257.55;;
67503;SDS011;54351;49.108;1.502;2023-02-04T06:10:16;277.58;;;251.90;;
67503;SDS011;54351;49.108;1.502;2023-02-04T06:12:45;365.33;;;333.52;;
67503;SDS011;54351;49.108;1.502;2023-02-04T06:15:11;334.30;;;304.95;;
67503;SDS011;54351;49.108;1.502;2023-02-04T06:17:37;341.35;;;310.92;;
67503;SDS011;54351;49.108;1.502;2023-02-04T06:20:04;348.98;;;318.48;;
67503;SDS011;54351;49.108;1.502;2023-02-04T06:22:30;343.02;;;312.38;;
67503;SDS011;54351;49.108;1.502;2023-02-04T06:24:56;328.58;;;299.45;;
67503;SDS011;54351;49.108;1.502;2023-02-04T06:27:22;317.52;;;289.88;;
67503;SDS011;54351;49.108;1.502;2023-02-04T06:29:49;304.42;;;276.88;;
67503;SDS011;54351;49.108;1.502;2023-02-04T06:32:15;387.75;;;353.83;;
67503;SDS011;54351;49.108;1.502;2023-02-04T06:34:42;369.13;;;336.10;;
67503;SDS011;54351;49.108;1.502;2023-02-04T06:37:08;347.83;;;316.98;;
67503;SDS011;54351;49.108;1.502;2023-02-04T06:39:34;328.00;;;299.33;;
67503;SDS011;54351;49.108;1.502;2023-02-04T06:42:00;287.63;;;262.10;;
67503;SDS011;54351;49.108;1.502;2023-02-04T06:44:26;264.25;;;241.82;;
67503;SDS011;54351;49.108;1.502;2023-02-04T06:46:52;387.08;;;353.95;;
67503;SDS011;54351;49.108;1.502;2023-02-04T06:49:18;264.50;;;241.25;;
67503;SDS011;54351;49.108;1.502;2023-02-04T06:51:45;379.77;;;346.30;;
67503;SDS011;54351;49.108;1.502;2023-02-04T06:54:12;300.88;;;274.15;;
67503;SDS011;54351;49.108;1.502;2023-02-04T06:56:38;344.38;;;314.42;;
67503;SDS011;54351;49.108;1.502;2023-02-04T06:59:04;312.08;;;285.15;;
67503;SDS011;54351;49.108;1.502;2023-02-04T07:01:30;356.20;;;324.95;;
67503;SDS011;54351;49.108;1.502;2023-02-04T07:03:56;370.45;;;337.83;;
67503;SDS011;54351;49.108;1.502;2023-02-04T07:06:22;304.98;;;277.48;;
67503;SDS011;54351;49.108;1.502;2023-02-04T07:08:49;328.17;;;299.17;;
67503;SDS011;54351;49.108;1.502;2023-02-04T07:11:15;369.38;;;336.42;;
67503;SDS011;54351;49.108;1.502;2023-02-04T07:13:41;319.15;;;290.20;;
67503;SDS011;54351;49.108;1.502;2023-02-04T07:16:07;349.23;;;318.98;;
67503;SDS011;54351;49.108;1.502;2023-02-04T07:18:33;389.95;;;356.17;;
67503;SDS011;54351;49.108;1.502;2023-02-04T07:20:59;301.17;;;274.23;;
67503;SDS011;54351;49.108;1.502;2023-02-04T07:23:25;350.58;;;320.17;;
67503;SDS011;54351;49.108;1.502;2023-02-04T07:25:52;336.77;;;306.95;;
67503;SDS011;54351;49.108;1.502;2023-02-04T07:28:20;419.38;;;382.92;;
67503;SDS011;54351;49.108;1.502;2023-02-04T07:30:46;410.20;;;373.92;;
67503;SDS011;54351;49.108;1.502;2023-02-04T07:33:12;309.50;;;281.60;;
67503;SDS011;54351;49.108;1.502;2023-02-04T07:35:38;332.77;;;303.55;;
67503;SDS011;54351;49.108;1.502;2023-02-04T07:38:04;328.95;;;300.15;;
67503;SDS011;54351;49.108;1.502;2023-02-04T07:40:31;267.42;;;241.65;;
67503;SDS011;54351;49.108;1.502;2023-02-04T07:42:57;310.80;;;281.58;;
67503;SDS011;54351;49.108;1.502;2023-02-04T07:45:23;233.63;;;211.32;;
67503;SDS011;54351;49.108;1.502;2023-02-04T07:47:49;309.63;;;282.20;;
67503;SDS011;54351;49.108;1.502;2023-02-04T07:50:15;265.25;;;240.57;;
67503;SDS011;54351;49.108;1.502;2023-02-04T07:52:41;296.10;;;269.65;;
67503;SDS011;54351;49.108;1.502;2023-02-04T07:55:07;319.65;;;291.10;;
67503;SDS011;54351;49.108;1.502;2023-02-04T07:57:34;340.42;;;310.13;;
67503;SDS011;54351;49.108;1.502;2023-02-04T08:00:00;299.73;;;272.40;;
67503;SDS011;54351;49.108;1.502;2023-02-04T08:02:26;278.42;;;254.18;;
67503;SDS011;54351;49.108;1.502;2023-02-04T08:04:52;332.92;;;302.52;;
67503;SDS011;54351;49.108;1.502;2023-02-04T08:07:18;333.17;;;304.90;;
67503;SDS011;54351;49.108;1.502;2023-02-04T08:09:44;329.88;;;300.98;;
67503;SDS011;54351;49.108;1.502;2023-02-04T08:12:11;292.73;;;267.23;;
67503;SDS011;54351;49.108;1.502;2023-02-04T08:14:37;288.23;;;263.13;;
67503;SDS011;54351;49.108;1.502;2023-02-04T08:17:03;328.58;;;300.15;;
67503;SDS011;54351;49.108;1.502;2023-02-04T08:19:29;236.52;;;214.77;;
67503;SDS011;54351;49.108;1.502;2023-02-04T08:21:55;223.77;;;203.80;;
67503;SDS011;54351;49.108;1.502;2023-02-04T08:24:21;288.90;;;263.77;;
67503;SDS011;54351;49.108;1.502;2023-02-04T08:26:48;267.25;;;244.13;;
67503;SDS011;54351;49.108;1.502;2023-02-04T08:29:15;246.68;;;224.82;;
67503;SDS011;54351;49.108;1.502;2023-02-04T08:31:41;237.43;;;216.23;;
67503;SDS011;54351;49.108;1.502;2023-02-04T08:34:07;223.95;;;204.02;;
67503;SDS011;54351;49.108;1.502;2023-02-04T08:36:33;230.82;;;210.05;;
67503;SDS011;54351;49.108;1.502;2023-02-04T08:38:59;221.98;;;201.60;;
67503;SDS011;54351;49.108;1.502;2023-02-04T08:41:25;229.43;;;209.18;;
67503;SDS011;54351;49.108;1.502;2023-02-04T08:43:51;228.77;;;208.70;;
67503;SDS011;54351;49.108;1.502;2023-02-04T08:46:17;255.52;;;234.02;;
67503;SDS011;54351;49.108;1.502;2023-02-04T08:48:43;232.63;;;212.02;;
67503;SDS011;54351;49.108;1.502;2023-02-04T08:51:09;209.63;;;191.00;;
67503;SDS011;54351;49.108;1.502;2023-02-04T08:53:35;191.10;;;174.45;;
67503;SDS011;54351;49.108;1.502;2023-02-04T08:56:03;241.63;;;220.50;;
67503;SDS011;54351;49.108;1.502;2023-02-04T08:58:29;245.80;;;224.63;;
67503;SDS011;54351;49.108;1.502;2023-02-04T09:00:55;245.32;;;222.95;;
67503;SDS011;54351;49.108;1.502;2023-02-04T09:03:21;275.17;;;251.30;;
67503;SDS011;54351;49.108;1.502;2023-02-04T09:05:47;302.85;;;275.73;;
67503;SDS011;54351;49.108;1.502;2023-02-04T09:08:13;252.52;;;230.80;;
67503;SDS011;54351;49.108;1.502;2023-02-04T09:10:39;298.08;;;271.73;;
67503;SDS011;54351;49.108;1.502;2023-02-04T09:13:05;276.55;;;252.20;;
67503;SDS011;54351;49.108;1.502;2023-02-04T09:15:35;278.10;;;253.05;;
67503;SDS011;54351;49.108;1.502;2023-02-04T09:18:01;265.98;;;241.43;;
67503;SDS011;54351;49.108;1.502;2023-02-04T09:20:39;267.42;;;243.07;;
67503;SDS011;54351;49.108;1.502;2023-02-04T09:23:05;352.75;;;321.80;;
67503;SDS011;54351;49.108;1.502;2023-02-04T09:25:34;269.38;;;245.27;;
67503;SDS011;54351;49.108;1.502;2023-02-04T09:28:00;242.32;;;219.52;;
67503;SDS011;54351;49.108;1.502;2023-02-04T09:30:26;204.65;;;185.85;;
67503;SDS011;54351;49.108;1.502;2023-02-04T09:32:52;246.95;;;224.00;;
67503;SDS011;54351;49.108;1.502;2023-02-04T09:35:18;238.43;;;216.07;;
67503;SDS011;54351;49.108;1.502;2023-02-04T09:37:44;316.05;;;287.17;;
67503;SDS011;54351;49.108;1.502;2023-02-04T09:40:13;255.73;;;232.82;;
67503;SDS011;54351;49.108;1.502;2023-02-04T09:42:41;326.02;;;297.60;;
67503;SDS011;54351;49.108;1.502;2023-02-04T09:45:12;212.55;;;193.18;;
67503;SDS011;54351;49.108;1.502;2023-02-04T09:47:40;285.08;;;260.38;;
67503;SDS011;54351;49.108;1.502;2023-02-04T09:50:08;256.10;;;234.32;;
67503;SDS011;54351;49.108;1.502;2023-02-04T09:52:35;226.30;;;205.93;;
67503;SDS011;54351;49.108;1.502;2023-02-04T09:55:01;348.40;;;320.05;;
67503;SDS011;54351;49.108;1.502;2023-02-04T09:57:27;362.38;;;333.30;;
67503;SDS011;54351;49.108;1.502;2023-02-04T09:59:54;359.75;;;333.15;;
67503;SDS011;54351;49.108;1.502;2023-02-04T10:04:47;320.30;;;295.20;;
67503;SDS011;54351;49.108;1.502;2023-02-04T10:07:13;319.20;;;295.08;;
67503;SDS011;54351;49.108;1.502;2023-02-04T10:09:42;315.23;;;292.88;;
67503;SDS011;54351;49.108;1.502;2023-02-04T10:12:08;315.40;;;293.60;;
67503;SDS011;54351;49.108;1.502;2023-02-04T10:14:34;231.43;;;215.85;;
67503;SDS011;54351;49.108;1.502;2023-02-04T10:17:00;247.93;;;231.45;;
67503;SDS011;54351;49.108;1.502;2023-02-04T10:19:27;220.27;;;205.85;;
67503;SDS011;54351;49.108;1.502;2023-02-04T10:21:54;225.75;;;210.68;;
67503;SDS011;54351;49.108;1.502;2023-02-04T10:24:21;202.73;;;188.90;;
67503;SDS011;54351;49.108;1.502;2023-02-04T10:26:50;169.35;;;158.10;;
67503;SDS011;54351;49.108;1.502;2023-02-04T10:29:17;182.82;;;171.30;;
67503;SDS011;54351;49.108;1.502;2023-02-04T10:31:45;168.35;;;157.55;;
67503;SDS011;54351;49.108;1.502;2023-02-04T10:34:18;163.68;;;153.20;;
67503;SDS011;54351;49.108;1.502;2023-02-04T10:36:48;160.15;;;149.60;;
67503;SDS011;54351;49.108;1.502;2023-02-04T10:39:15;161.65;;;150.73;;
67503;SDS011;54351;49.108;1.502;2023-02-04T10:41:45;153.40;;;143.05;;
67503;SDS011;54351;49.108;1.502;2023-02-04T10:44:12;156.20;;;145.65;;
67503;SDS011;54351;49.108;1.502;2023-02-04T10:46:39;166.98;;;154.80;;
67503;SDS011;54351;49.108;1.502;2023-02-04T10:49:21;218.82;;;202.63;;
67503;SDS011;54351;49.108;1.502;2023-02-04T10:51:48;163.40;;;151.55;;
67503;SDS011;54351;49.108;1.502;2023-02-04T10:54:14;176.85;;;164.00;;
67503;SDS011;54351;49.108;1.502;2023-02-04T10:57:03;207.30;;;191.43;;
67503;SDS011;54351;49.108;1.502;2023-02-04T10:59:29;193.43;;;179.60;;
67503;SDS011;54351;49.108;1.502;2023-02-04T11:01:56;186.70;;;173.60;;
67503;SDS011;54351;49.108;1.502;2023-02-04T11:07:26;325.55;;;301.25;;
67503;SDS011;54351;49.108;1.502;2023-02-04T11:09:53;289.88;;;268.20;;
67503;SDS011;54351;49.108;1.502;2023-02-04T11:12:34;338.10;;;313.05;;
67503;SDS011;54351;49.108;1.502;2023-02-04T11:15:00;415.87;;;384.50;;
67503;SDS011;54351;49.108;1.502;2023-02-04T11:17:30;417.13;;;385.73;;
67503;SDS011;54351;49.108;1.502;2023-02-04T11:19:56;318.40;;;294.65;;
67503;SDS011;54351;49.108;1.502;2023-02-04T11:22:41;408.88;;;377.85;;
67503;SDS011;54351;49.108;1.502;2023-02-04T11:27:52;271.05;;;250.02;;
67503;SDS011;54351;49.108;1.502;2023-02-04T11:30:19;395.58;;;365.63;;
67503;SDS011;54351;49.108;1.502;2023-02-04T11:32:54;390.10;;;360.20;;
67503;SDS011;54351;49.108;1.502;2023-02-04T11:35:22;391.40;;;362.48;;
67503;SDS011;54351;49.108;1.502;2023-02-04T11:37:49;340.52;;;315.10;;
67503;SDS011;54351;49.108;1.502;2023-02-04T11:40:25;384.88;;;356.88;;
67503;SDS011;54351;49.108;1.502;2023-02-04T11:42:55;359.23;;;332.73;;
67503;SDS011;54351;49.108;1.502;2023-02-04T11:45:32;413.13;;;382.17;;
67503;SDS011;54351;49.108;1.502;2023-02-04T11:47:59;439.70;;;405.98;;
67503;SDS011;54351;49.108;1.502;2023-02-04T11:50:28;389.25;;;360.67;;
67503;SDS011;54351;49.108;1.502;2023-02-04T11:52:55;376.13;;;348.25;;
67503;SDS011;54351;49.108;1.502;2023-02-04T11:55:21;431.85;;;399.38;;
67503;SDS011;54351;49.108;1.502;2023-02-04T11:57:52;437.63;;;404.60;;
67503;SDS011;54351;49.108;1.502;2023-02-04T12:00:22;447.90;;;414.15;;
67503;SDS011;54351;49.108;1.502;2023-02-04T12:02:58;460.35;;;425.73;;
67503;SDS011;54351;49.108;1.502;2023-02-04T12:05:38;474.95;;;438.88;;
67503;SDS011;54351;49.108;1.502;2023-02-04T12:10:57;445.08;;;411.45;;
67503;SDS011;54351;49.108;1.502;2023-02-04T12:13:24;398.27;;;369.67;;
67503;SDS011;54351;49.108;1.502;2023-02-04T12:15:58;452.30;;;418.83;;
67503;SDS011;54351;49.108;1.502;2023-02-04T12:18:24;442.98;;;409.77;;
67503;SDS011;54351;49.108;1.502;2023-02-04T12:20:54;485.23;;;448.27;;
67503;SDS011;54351;49.108;1.502;2023-02-04T12:23:20;464.42;;;429.83;;
67503;SDS011;54351;49.108;1.502;2023-02-04T12:25:47;501.00;;;462.10;;
67503;SDS011;54351;49.108;1.502;2023-02-04T12:28:13;479.60;;;442.45;;
67503;SDS011;54351;49.108;1.502;2023-02-04T12:30:39;494.80;;;456.60;;
67503;SDS011;54351;49.108;1.502;2023-02-04T12:33:05;497.05;;;459.10;;
67503;SDS011;54351;49.108;1.502;2023-02-04T12:35:32;442.40;;;409.10;;
67503;SDS011;54351;49.108;1.502;2023-02-04T12:37:58;478.35;;;441.58;;
67503;SDS011;54351;49.108;1.502;2023-02-04T12:40:24;470.48;;;435.30;;
67503;SDS011;54351;49.108;1.502;2023-02-04T12:42:50;471.60;;;435.45;;
67503;SDS011;54351;49.108;1.502;2023-02-04T12:45:16;485.95;;;448.90;;
67503;SDS011;54351;49.108;1.502;2023-02-04T12:47:43;450.50;;;417.35;;
67503;SDS011;54351;49.108;1.502;2023-02-04T12:50:10;447.58;;;414.02;;
67503;SDS011;54351;49.108;1.502;2023-02-04T12:52:37;473.17;;;437.02;;
67503;SDS011;54351;49.108;1.502;2023-02-04T12:55:04;479.58;;;442.75;;
67503;SDS011;54351;49.108;1.502;2023-02-04T12:57:30;468.45;;;433.20;;
67503;SDS011;54351;49.108;1.502;2023-02-04T12:59:57;499.95;;;461.30;;
67503;SDS011;54351;49.108;1.502;2023-02-04T13:02:27;475.58;;;439.45;;
67503;SDS011;54351;49.108;1.502;2023-02-04T13:04:54;470.60;;;434.55;;
67503;SDS011;54351;49.108;1.502;2023-02-04T13:07:20;466.13;;;430.90;;
67503;SDS011;54351;49.108;1.502;2023-02-04T13:09:46;458.67;;;423.77;;
67503;SDS011;54351;49.108;1.502;2023-02-04T13:12:13;467.52;;;432.23;;
67503;SDS011;54351;49.108;1.502;2023-02-04T13:14:39;481.27;;;444.38;;
67503;SDS011;54351;49.108;1.502;2023-02-04T13:17:05;471.63;;;435.50;;
67503;SDS011;54351;49.108;1.502;2023-02-04T13:19:32;444.83;;;410.55;;
67503;SDS011;54351;49.108;1.502;2023-02-04T13:21:58;479.67;;;443.13;;
67503;SDS011;54351;49.108;1.502;2023-02-04T13:24:26;445.02;;;411.70;;
67503;SDS011;54351;49.108;1.502;2023-02-04T13:26:52;480.17;;;443.27;;
67503;SDS011;54351;49.108;1.502;2023-02-04T13:29:18;467.25;;;432.13;;
67503;SDS011;54351;49.108;1.502;2023-02-04T13:31:46;452.50;;;418.77;;
67503;SDS011;54351;49.108;1.502;2023-02-04T13:34:12;434.95;;;401.55;;
67503;SDS011;54351;49.108;1.502;2023-02-04T13:36:38;474.33;;;439.38;;
67503;SDS011;54351;49.108;1.502;2023-02-04T13:39:04;510.00;;;471.20;;
67503;SDS011;54351;49.108;1.502;2023-02-04T13:41:31;501.00;;;463.50;;
67503;SDS011;54351;49.108;1.502;2023-02-04T13:43:57;417.85;;;388.08;;
67503;SDS011;54351;49.108;1.502;2023-02-04T13:46:23;406.65;;;377.65;;
67503;SDS011;54351;49.108;1.502;2023-02-04T13:48:49;419.13;;;389.05;;
67503;SDS011;54351;49.108;1.502;2023-02-04T13:51:15;371.00;;;345.55;;
67503;SDS011;54351;49.108;1.502;2023-02-04T13:53:41;431.95;;;400.92;;
67503;SDS011;54351;49.108;1.502;2023-02-04T13:56:07;400.42;;;372.00;;
67503;SDS011;54351;49.108;1.502;2023-02-04T13:58:34;406.73;;;377.90;;
67503;SDS011;54351;49.108;1.502;2023-02-04T14:01:00;442.52;;;410.23;;
67503;SDS011;54351;49.108;1.502;2023-02-04T14:03:26;232.20;;;217.32;;
67503;SDS011;54351;49.108;1.502;2023-02-04T14:05:52;247.40;;;232.00;;